Time;durP1;ratioP1;P1;durP2;ratioP2;P2;SDS_P1;SDS_P2;PMS_P1;PMS_P2;Temp;Humidity;BMP_temperature;BMP_pressure;BME280_temperature;BME280_humidity;BME280_pressure;Samples;Min_cycle;Max_cycle;Signal;HPM_P1;HPM_P2
2021/10/03 00:01:39;;;;;;;;;;;;;;;;;;;;;
2021/10/03 00:04:54;;;;;;;1.17;0.90;;;13.30;99.90;;;;;;6171672;23;20020;-78
2021/10/03 00:07:57;;;;;;;0.93;0.90;;;13.40;99.90;;;;;;6142570;23;20024;-80
2021/10/03 00:10:36;;;;;;;1.55;0.95;;;13.20;99.90;;;;;;6167804;23;20025;-78
2021/10/03 00:13:55;;;;;;;3.15;1.20;;;13.20;99.90;;;;;;6178887;23;20032;-81
2021/10/03 00:16:23;;;;;;;1.20;0.93;;;13.10;99.90;;;;;;6149782;23;20021;-79
2021/10/03 00:18:52;;;;;;;4.53;1.13;;;13.20;99.90;;;;;;6149864;23;20025;-79
2021/10/03 00:21:46;;;;;;;4.43;1.27;;;13.10;99.90;;;;;;6177154;23;20021;-83
2021/10/03 00:24:30;;;;;;;4.95;1.27;;;13.10;99.90;;;;;;6166482;23;20014;-80
2021/10/03 00:27:13;;;;;;;2.85;1.40;;;13.10;99.90;;;;;;6149932;23;20014;-79
2021/10/03 00:31:11;;;;;;;3.75;1.10;;;12.20;99.90;;;;;;6178919;23;20024;-80
2021/10/03 00:33:40;;;;;;;1.52;1.27;;;13.10;99.90;;;;;;6128070;23;20010;-77
2021/10/03 00:36:25;;;;;;;3.08;1.20;;;11.90;99.90;;;;;;6138519;23;20022;-80
2021/10/03 00:39:17;;;;;;;2.38;1.15;;;13.00;99.90;;;;;;6111689;23;20022;-80
2021/10/03 00:46:12;;;;;;;6.88;1.30;;;13.10;99.90;;;;;;6137786;23;20044;-81
2021/10/03 00:53:29;;;;;;;3.70;1.23;;;11.80;99.90;;;;;;6205578;23;20152;-79
2021/10/03 00:55:58;;;;;;;10.27;1.63;;;12.90;99.90;;;;;;6203252;23;20120;-78
2021/10/03 00:59:13;;;;;;;7.38;1.00;;;12.80;99.90;;;;;;6137463;23;20033;-78
2021/10/03 01:02:18;;;;;;;9.30;1.67;;;12.80;99.90;;;;;;6113208;23;20022;-81
2021/10/03 01:05:03;;;;;;;6.53;1.23;;;12.80;99.90;;;;;;6194913;23;20013;-81
2021/10/03 01:07:47;;;;;;;5.10;1.30;;;13.00;99.90;;;;;;6199287;23;20013;-78
2021/10/03 01:10:22;;;;;;;1.90;1.35;;;12.70;99.90;;;;;;6207145;23;20017;-77
2021/10/03 01:13:16;;;;;;;4.82;1.70;;;12.70;99.90;;;;;;6197070;23;20017;-79
2021/10/03 01:15:51;;;;;;;2.95;1.20;;;12.70;99.90;;;;;;6207595;23;20039;-77
2021/10/03 01:18:21;;;;;;;5.50;1.40;;;12.70;99.90;;;;;;6169168;23;20031;-81
2021/10/03 01:20:51;;;;;;;5.82;1.30;;;12.70;99.90;;;;;;6171854;23;20025;-78
2021/10/03 01:23:21;;;;;;;1.83;1.33;;;12.60;99.90;;;;;;6169445;23;20031;-80
2021/10/03 01:25:53;;;;;;;5.18;1.77;;;12.60;99.90;;;;;;6221540;23;20024;-77
2021/10/03 01:28:22;;;;;;;3.60;1.17;;;12.60;99.90;;;;;;6178661;23;20020;-81
2021/10/03 01:30:53;;;;;;;5.22;1.30;;;12.60;99.90;;;;;;6167345;23;20027;-81
2021/10/03 01:33:26;;;;;;;5.10;1.60;;;12.60;99.90;;;;;;6221127;23;20025;-80
2021/10/03 01:35:55;;;;;;;4.28;1.10;;;12.50;99.90;;;;;;6144335;23;20017;-77
2021/10/03 01:38:24;;;;;;;5.00;1.80;;;12.50;99.90;;;;;;6167928;23;20027;-81
2021/10/03 01:40:52;;;;;;;4.25;1.58;;;12.60;99.90;;;;;;6229033;23;20009;-79
2021/10/03 01:43:20;;;;;;;8.15;1.20;;;12.50;99.90;;;;;;6193463;23;20017;-78
2021/10/03 01:45:50;;;;;;;5.05;1.20;;;12.50;99.90;;;;;;6179447;23;20016;-80
2021/10/03 01:48:40;;;;;;;2.17;1.45;;;12.50;99.90;;;;;;6202065;23;20009;-80
2021/10/03 01:51:10;;;;;;;8.55;1.50;;;13.20;99.90;;;;;;6193481;23;20013;-79
2021/10/03 01:53:47;;;;;;;3.05;1.35;;;12.40;99.90;;;;;;6191794;23;20021;-81
2021/10/03 01:56:25;;;;;;;2.58;1.25;;;12.50;99.90;;;;;;6195842;23;20019;-81
2021/10/03 01:58:56;;;;;;;5.72;1.40;;;12.40;99.90;;;;;;6143872;23;20025;-78
2021/10/03 02:01:24;;;;;;;;;;;12.40;99.90;;;;;;6207068;23;20023;-82
2021/10/03 02:03:53;;;;;;;4.57;1.27;;;12.40;99.90;;;;;;6204558;23;19916;-80
2021/10/03 02:06:23;;;;;;;4.90;1.55;;;12.30;99.90;;;;;;6203168;23;20017;-79
2021/10/03 02:08:58;;;;;;;3.25;1.52;;;12.30;99.90;;;;;;6197354;23;20071;-78
2021/10/03 02:11:28;;;;;;;1.13;1.02;;;12.30;99.90;;;;;;6193795;23;20014;-79
2021/10/03 02:13:56;;;;;;;6.70;1.40;;;12.30;99.90;;;;;;6204182;23;20017;-78
2021/10/03 02:16:25;;;;;;;4.82;1.15;;;12.30;99.90;;;;;;6191691;23;20025;-78
2021/10/03 02:18:54;;;;;;;9.50;1.55;;;12.30;99.90;;;;;;6194598;23;20021;-80
2021/10/03 02:21:22;;;;;;;5.68;2.60;;;12.20;99.90;;;;;;6205118;23;20017;-82
2021/10/03 02:23:53;;;;;;;5.45;1.05;;;12.20;99.90;;;;;;6145547;23;20035;-77
2021/10/03 02:26:21;;;;;;;6.90;1.20;;;12.30;99.90;;;;;;6198443;23;20394;-79
2021/10/03 02:28:50;;;;;;;7.03;1.92;;;12.10;99.90;;;;;;6194228;23;20035;-80
2021/10/03 02:31:18;;;;;;;7.00;2.83;;;12.20;99.90;;;;;;6206402;23;20021;-79
2021/10/03 02:33:52;;;;;;;11.00;2.22;;;12.30;99.90;;;;;;6207214;23;20020;-79
2021/10/03 02:36:35;;;;;;;5.30;1.63;;;12.20;99.90;;;;;;6171211;23;20027;-80
2021/10/03 02:39:05;;;;;;;3.00;1.55;;;12.20;99.90;;;;;;6171746;23;20021;-80
2021/10/03 02:41:38;;;;;;;3.03;1.15;;;12.20;99.90;;;;;;6199851;23;20023;-79
2021/10/03 02:44:08;;;;;;;6.32;1.30;;;12.10;99.90;;;;;;6206314;23;20027;-80
2021/10/03 02:46:39;;;;;;;4.80;1.30;;;12.10;99.90;;;;;;6168435;23;20017;-78
2021/10/03 02:49:08;;;;;;;6.25;1.40;;;11.90;99.90;;;;;;6196762;23;20021;-77
2021/10/03 02:51:46;;;;;;;1.80;1.20;;;12.10;99.90;;;;;;6191501;23;20021;-83
2021/10/03 02:54:24;;;;;;;7.53;1.30;;;12.10;99.90;;;;;;6204206;23;20013;-80
2021/10/03 02:56:55;;;;;;;2.60;1.40;;;12.10;99.90;;;;;;6193886;23;20017;-79
2021/10/03 02:59:25;;;;;;;3.05;1.33;;;12.00;99.90;;;;;;6204711;23;20027;-79
2021/10/03 03:01:54;;;;;;;11.73;1.50;;;12.10;99.90;;;;;;6192790;23;20020;-77
2021/10/03 03:04:24;;;;;;;6.57;1.58;;;12.10;99.90;;;;;;6171141;23;20021;-82
2021/10/03 03:06:56;;;;;;;3.40;1.30;;;12.10;99.90;;;;;;6206210;23;20195;-81
2021/10/03 03:09:24;;;;;;;6.88;1.33;;;12.10;99.90;;;;;;6170998;23;20017;-80
2021/10/03 03:11:53;;;;;;;5.47;1.27;;;12.20;99.90;;;;;;6207976;23;20025;-78
2021/10/03 03:14:50;;;;;;;;;;;;;;;;;;;;;
2021/10/03 03:17:27;;;;;;;4.05;1.33;;;12.60;99.90;;;;;;6226810;23;20023;-80
2021/10/03 03:19:57;;;;;;;5.85;1.65;;;12.00;99.90;;;;;;6207745;23;20020;-78
2021/10/03 03:22:27;;;;;;;4.03;1.40;;;12.00;99.90;;;;;;6205091;23;20021;-81
2021/10/03 03:24:57;;;;;;;6.28;1.75;;;12.00;99.90;;;;;;6168862;23;20025;-77
2021/10/03 03:27:25;;;;;;;6.30;2.00;;;12.10;99.90;;;;;;6194304;23;20025;-79
2021/10/03 03:29:54;;;;;;;5.10;1.42;;;12.00;99.90;;;;;;6206527;23;20013;-79
2021/10/03 03:32:22;;;;;;;8.70;1.60;;;12.00;99.90;;;;;;6196750;23;20017;-78
2021/10/03 03:34:51;;;;;;;9.57;4.18;;;12.00;99.90;;;;;;6231248;23;20017;-79
2021/10/03 03:37:26;;;;;;;7.63;1.73;;;11.60;99.90;;;;;;6194655;23;20025;-80
2021/10/03 03:40:04;;;;;;;5.57;1.65;;;12.00;99.90;;;;;;6171003;23;20017;-79
2021/10/03 03:42:33;;;;;;;4.63;1.40;;;12.00;99.90;;;;;;6171444;23;20031;-79
2021/10/03 03:45:02;;;;;;;4.47;1.60;;;12.10;99.90;;;;;;6196389;23;20029;-80
2021/10/03 03:47:30;;;;;;;4.78;1.63;;;12.00;99.90;;;;;;6171017;23;20027;-79
2021/10/03 03:49:59;;;;;;;4.55;1.52;;;12.10;99.90;;;;;;6202901;23;20016;-79
2021/10/03 03:52:29;;;;;;;5.60;2.45;;;12.00;99.90;;;;;;6201120;23;20009;-79
2021/10/03 03:54:57;;;;;;;6.38;2.13;;;12.00;99.90;;;;;;6199212;23;20021;-79
2021/10/03 03:57:26;;;;;;;6.35;1.77;;;12.00;99.90;;;;;;6194610;23;20017;-79
2021/10/03 03:59:54;;;;;;;13.85;3.75;;;12.00;99.90;;;;;;6170108;23;20021;-78
2021/10/03 04:02:24;;;;;;;2.95;1.58;;;12.00;99.90;;;;;;6230497;23;20013;-80
2021/10/03 04:04:53;;;;;;;4.18;1.65;;;12.00;99.90;;;;;;6198230;23;20017;-80
2021/10/03 04:07:23;;;;;;;10.02;1.60;;;13.10;99.90;;;;;;6175147;23;20028;-80
2021/10/03 04:10:27;;;;;;;4.85;1.80;;;12.00;99.90;;;;;;6192466;23;20021;-77
2021/10/03 04:13:06;;;;;;;6.05;1.25;;;11.90;99.90;;;;;;6212650;23;20017;-82
2021/10/03 04:15:38;;;;;;;3.08;1.20;;;11.90;99.90;;;;;;6150358;23;20025;-79
2021/10/03 04:18:07;;;;;;;5.03;1.90;;;11.90;99.90;;;;;;6173109;23;20073;-78
2021/10/03 04:20:37;;;;;;;2.38;1.40;;;11.90;99.90;;;;;;6173586;23;20031;-78
2021/10/03 04:23:16;;;;;;;7.07;2.03;;;11.90;99.90;;;;;;6171889;23;20056;-80
2021/10/03 04:25:52;;;;;;;5.18;1.48;;;11.90;99.90;;;;;;6203792;23;20532;-80
2021/10/03 04:28:20;;;;;;;9.85;1.75;;;11.90;99.90;;;;;;6200627;23;20677;-79
2021/10/03 04:30:50;;;;;;;7.43;2.20;;;11.80;99.90;;;;;;6199263;23;20013;-79
2021/10/03 04:33:19;;;;;;;4.00;2.15;;;11.80;99.90;;;;;;6123667;23;20021;-79
2021/10/03 04:35:47;;;;;;;14.68;1.83;;;11.80;99.90;;;;;;6208012;23;20015;-79
2021/10/03 04:38:15;;;;;;;4.93;1.17;;;11.30;99.90;;;;;;6171417;23;20027;-80
2021/10/03 04:40:51;;;;;;;1.55;1.33;;;11.90;99.90;;;;;;6196056;23;20013;-79
2021/10/03 04:43:19;;;;;;;7.82;1.60;;;11.80;99.90;;;;;;6196145;23;20016;-77
2021/10/03 04:45:48;;;;;;;2.45;1.25;;;11.80;99.90;;;;;;6174345;23;20020;-79
2021/10/03 04:48:16;;;;;;;9.65;2.25;;;11.80;99.90;;;;;;6205903;23;20027;-78
2021/10/03 04:50:46;;;;;;;12.18;2.05;;;11.80;99.90;;;;;;6196956;23;20221;-79
2021/10/03 04:53:15;;;;;;;3.63;1.65;;;11.80;99.90;;;;;;6229549;23;20375;-79
2021/10/03 04:55:46;;;;;;;2.45;1.50;;;11.80;99.90;;;;;;6170483;23;20467;-79
2021/10/03 04:58:14;;;;;;;2.45;1.70;;;11.70;99.90;;;;;;6206149;23;20023;-78
2021/10/03 05:00:43;;;;;;;5.55;1.40;;;11.80;99.90;;;;;;6206581;23;20032;-78
2021/10/03 05:03:11;;;;;;;6.60;1.48;;;11.70;99.90;;;;;;6195424;23;20025;-79
2021/10/03 05:05:44;;;;;;;21.58;4.13;;;11.70;99.90;;;;;;6206419;23;20021;-80
2021/10/03 05:08:24;;;;;;;12.02;1.90;;;11.70;99.90;;;;;;6193853;23;20021;-81
2021/10/03 05:10:53;;;;;;;7.63;3.83;;;11.70;99.90;;;;;;6194910;23;20017;-79
2021/10/03 05:13:24;;;;;;;3.15;2.00;;;11.70;99.90;;;;;;6207618;23;20023;-79
2021/10/03 05:15:56;;;;;;;16.08;2.45;;;11.70;99.90;;;;;;6170432;23;20031;-80
2021/10/03 05:18:27;;;;;;;12.02;1.92;;;11.70;99.90;;;;;;6170640;23;20013;-80
2021/10/03 05:21:01;;;;;;;2.60;1.23;;;11.70;99.90;;;;;;6183534;23;20021;-78
2021/10/03 05:28:38;;;;;;;8.05;2.60;;;11.80;99.90;;;;;;6192019;23;20021;-80
2021/10/03 05:31:14;;;;;;;6.88;2.50;;;11.70;99.90;;;;;;6195490;23;20019;-79
2021/10/03 05:33:43;;;;;;;6.82;1.48;;;13.40;99.90;;;;;;6196349;23;20031;-79
2021/10/03 05:36:17;;;;;;;3.05;1.77;;;11.70;99.90;;;;;;6229936;23;20012;-79
2021/10/03 05:38:47;;;;;;;11.23;1.67;;;11.70;99.90;;;;;;6195360;23;20024;-79
2021/10/03 05:41:24;;;;;;;3.63;1.20;;;11.70;99.90;;;;;;6211026;23;20017;-81
2021/10/03 05:44:04;;;;;;;5.32;1.55;;;12.00;99.90;;;;;;6198133;23;20025;-80
2021/10/03 05:47:23;;;;;;;7.47;2.10;;;11.70;99.90;;;;;;6164470;23;20025;-78
2021/10/03 05:50:31;;;;;;;7.03;2.05;;;11.70;99.90;;;;;;6170502;23;20031;-82
2021/10/03 05:53:16;;;;;;;7.50;1.70;;;12.40;99.90;;;;;;6192691;23;20017;-80
2021/10/03 05:55:50;;;;;;;6.55;1.27;;;12.20;99.90;;;;;;6230241;23;20023;-80
2021/10/03 05:58:45;;;;;;;4.82;1.75;;;10.50;99.90;;;;;;6033429;23;20023;-79
2021/10/03 06:01:13;;;;;;;9.90;1.90;;;11.60;99.90;;;;;;6051115;23;20019;-80
2021/10/03 06:03:48;;;;;;;5.35;1.75;;;11.60;99.90;;;;;;6058898;23;20792;-82
2021/10/03 06:06:30;;;;;;;3.90;1.38;;;11.60;99.90;;;;;;6077175;23;20027;-81
2021/10/03 06:08:58;;;;;;;5.88;1.77;;;11.60;99.90;;;;;;6050716;23;20026;-80
2021/10/03 06:11:40;;;;;;;5.50;1.63;;;11.60;99.90;;;;;;6076733;23;20023;-78
2021/10/03 06:14:18;;;;;;;5.38;1.50;;;11.50;99.90;;;;;;6051808;23;20031;-80
2021/10/03 06:17:10;;;;;;;6.07;1.60;;;11.50;99.90;;;;;;6109838;23;20027;-78
2021/10/03 06:19:43;;;;;;;8.03;2.67;;;11.50;99.90;;;;;;6178714;23;20021;-80
2021/10/03 06:22:15;;;;;;;6.97;1.92;;;10.40;99.90;;;;;;6219470;23;20023;-79
2021/10/03 06:25:07;;;;;;;10.73;2.22;;;11.60;99.90;;;;;;6143174;23;20036;-79
2021/10/03 06:27:40;;;;;;;4.32;1.63;;;11.50;99.90;;;;;;6206410;23;20027;-79
2021/10/03 06:30:18;;;;;;;5.45;2.17;;;11.50;99.90;;;;;;6169460;23;20565;-78
2021/10/03 06:32:54;;;;;;;3.97;1.55;;;11.50;99.90;;;;;;6223039;23;20019;-79
2021/10/03 06:35:34;;;;;;;7.28;1.48;;;11.50;99.90;;;;;;6206753;23;20021;-81
2021/10/03 06:38:09;;;;;;;5.77;2.07;;;11.60;99.90;;;;;;6200389;23;20020;-79
2021/10/03 06:40:53;;;;;;;3.50;1.60;;;11.50;99.90;;;;;;6197943;23;20027;-79
2021/10/03 06:43:52;;;;;;;7.50;1.92;;;11.50;99.90;;;;;;6184910;23;20021;-81
2021/10/03 06:46:34;;;;;;;6.93;1.80;;;11.50;99.90;;;;;;6228028;23;20020;-80
2021/10/03 06:49:06;;;;;;;13.07;1.50;;;11.50;99.90;;;;;;6206524;23;20016;-82
2021/10/03 06:51:59;;;;;;;9.85;1.88;;;11.40;99.90;;;;;;6169595;23;20025;-80
2021/10/03 06:54:48;;;;;;;7.97;1.92;;;11.50;99.90;;;;;;6169478;23;20017;-79
2021/10/03 06:57:21;;;;;;;3.15;1.73;;;11.40;99.90;;;;;;6196091;23;20027;-79
2021/10/03 06:59:49;;;;;;;6.38;1.65;;;11.50;99.90;;;;;;6194365;23;20144;-82
2021/10/03 07:02:58;;;;;;;4.57;1.90;;;11.50;99.90;;;;;;6171642;23;20023;-81
2021/10/03 07:05:40;;;;;;;7.35;2.33;;;11.50;99.90;;;;;;6148224;23;20021;-79
2021/10/03 07:08:15;;;;;;;2.88;1.90;;;11.50;99.90;;;;;;6144004;23;20021;-80
2021/10/03 07:10:46;;;;;;;7.38;2.15;;;11.50;99.90;;;;;;6169150;23;20021;-81
2021/10/03 07:13:27;;;;;;;8.98;2.05;;;12.80;99.90;;;;;;6146327;23;20021;-81
2021/10/03 07:15:58;;;;;;;7.80;2.83;;;11.50;99.90;;;;;;6171071;23;20025;-81
2021/10/03 07:18:32;;;;;;;5.30;1.92;;;11.50;99.90;;;;;;6196020;23;20455;-78
2021/10/03 07:21:03;;;;;;;6.45;1.83;;;11.50;99.90;;;;;;6193149;23;20023;-80
2021/10/03 07:23:59;;;;;;;2.30;1.52;;;11.50;99.90;;;;;;6174848;23;20021;-82
2021/10/03 07:27:25;;;;;;;4.28;1.40;;;12.30;99.90;;;;;;6099788;23;20120;-80
2021/10/03 07:30:06;;;;;;;5.60;1.60;;;11.60;99.90;;;;;;6076853;23;20018;-83
2021/10/03 07:32:49;;;;;;;6.30;1.55;;;11.50;99.90;;;;;;6078410;23;20033;-83
2021/10/03 07:35:21;;;;;;;3.90;1.70;;;10.70;99.90;;;;;;6105089;23;20036;-82
2021/10/03 07:38:38;;;;;;;;;;;;;;;;;;;;;
2021/10/03 07:41:12;;;;;;;5.65;1.55;;;11.70;99.90;;;;;;6090375;23;20026;-79
2021/10/03 07:43:43;;;;;;;3.47;1.55;;;11.60;99.90;;;;;;6121767;23;20017;-78
2021/10/03 07:46:23;;;;;;;5.40;1.95;;;11.60;99.90;;;;;;6199406;23;20013;-80
2021/10/03 07:48:55;;;;;;;6.75;2.35;;;13.10;99.90;;;;;;6194002;23;20021;-82
2021/10/03 07:51:46;;;;;;;4.07;2.67;;;11.60;99.90;;;;;;6124001;23;20022;-91
2021/10/03 07:54:36;;;;;;;2.63;1.50;;;11.60;99.90;;;;;;6094007;23;20064;-89
2021/10/03 07:57:07;;;;;;;6.25;2.30;;;11.60;99.90;;;;;;6064778;23;20025;-92
2021/10/03 07:59:39;;;;;;;8.73;2.10;;;11.60;99.90;;;;;;6090314;23;20022;-93
2021/10/03 08:02:14;;;;;;;16.77;2.17;;;11.60;99.90;;;;;;6067398;23;20018;-93
2021/10/03 08:04:42;;;;;;;5.28;1.33;;;11.60;99.90;;;;;;6087070;23;20018;-92
2021/10/03 08:07:22;;;;;;;3.88;1.30;;;11.70;99.90;;;;;;6098068;23;20032;-92
2021/10/03 08:10:06;;;;;;;13.35;2.42;;;11.70;99.90;;;;;;6096824;23;20335;-93
2021/10/03 08:12:36;;;;;;;4.32;1.48;;;11.70;99.90;;;;;;6092675;23;20021;-94
2021/10/03 08:15:09;;;;;;;5.47;1.60;;;11.70;99.90;;;;;;6117467;23;20017;-93
2021/10/03 08:17:53;;;;;;;4.93;1.27;;;11.70;99.90;;;;;;6117024;23;20021;-91
2021/10/03 08:20:41;;;;;;;3.00;1.08;;;11.70;99.90;;;;;;6122457;23;20082;-92
2021/10/03 08:23:23;;;;;;;5.70;1.30;;;11.80;99.90;;;;;;6116293;23;20008;-92
2021/10/03 08:25:53;;;;;;;2.63;1.40;;;11.90;99.90;;;;;;6113110;23;20032;-89
2021/10/03 08:28:24;;;;;;;5.80;2.08;;;11.90;99.90;;;;;;6090427;23;20014;-92
2021/10/03 08:30:57;;;;;;;4.90;1.50;;;11.90;99.90;;;;;;6115712;23;20026;-91
2021/10/03 08:33:44;;;;;;;2.72;1.40;;;11.90;99.90;;;;;;6165290;23;20028;-90
2021/10/03 08:36:25;;;;;;;3.67;1.52;;;12.00;99.90;;;;;;6115377;23;20017;-91
2021/10/03 08:38:59;;;;;;;3.97;0.98;;;11.90;99.90;;;;;;6093774;23;20017;-91
2021/10/03 08:41:31;;;;;;;4.85;1.23;;;11.90;99.90;;;;;;6095910;23;20040;-91
2021/10/03 08:44:31;;;;;;;6.00;1.70;;;11.90;99.90;;;;;;6119533;23;20018;-92
2021/10/03 08:47:15;;;;;;;5.10;1.33;;;11.70;99.90;;;;;;6143302;23;20026;-92
2021/10/03 08:49:44;;;;;;;8.90;1.85;;;11.90;99.90;;;;;;6116170;23;20022;-90
2021/10/03 08:52:22;;;;;;;4.07;2.13;;;11.90;99.90;;;;;;6102249;23;20025;-91
2021/10/03 08:55:22;;;;;;;4.78;1.58;;;12.00;99.90;;;;;;6100443;23;20032;-90
2021/10/03 08:57:54;;;;;;;1.75;1.15;;;11.90;99.90;;;;;;6117762;23;20018;-91
2021/10/03 09:00:27;;;;;;;4.63;1.52;;;12.00;99.90;;;;;;6143633;23;20095;-89
2021/10/03 09:03:06;;;;;;;4.23;1.50;;;12.00;99.90;;;;;;6145350;23;20014;-93
2021/10/03 09:05:40;;;;;;;2.80;1.17;;;12.00;99.90;;;;;;6145046;23;20033;-92
2021/10/03 09:08:24;;;;;;;6.57;1.45;;;12.10;99.90;;;;;;6118054;23;20360;-88
2021/10/03 09:11:08;;;;;;;4.28;1.25;;;12.20;99.90;;;;;;6123653;23;20018;-92
2021/10/03 09:13:37;;;;;;;5.15;1.40;;;12.20;99.90;;;;;;6143044;23;20025;-93
2021/10/03 09:16:15;;;;;;;4.40;1.20;;;12.30;99.90;;;;;;6119538;23;20453;-92
2021/10/03 09:18:59;;;;;;;3.42;1.65;;;12.40;99.90;;;;;;6145180;23;20025;-92
2021/10/03 09:21:31;;;;;;;3.63;1.42;;;12.40;99.90;;;;;;6095660;23;20021;-94
2021/10/03 09:24:15;;;;;;;4.97;2.55;;;12.50;99.90;;;;;;6122398;23;20021;-91
2021/10/03 09:27:03;;;;;;;2.15;1.10;;;12.60;99.90;;;;;;6147616;23;20009;-93
2021/10/03 09:30:05;;;;;;;3.55;1.55;;;12.60;99.90;;;;;;6124711;23;20032;-91
2021/10/03 09:32:34;;;;;;;6.80;1.95;;;12.70;99.90;;;;;;6154667;23;20023;-94
2021/10/03 09:35:10;;;;;;;3.60;1.38;;;12.80;99.90;;;;;;6147984;23;20025;-91
2021/10/03 09:37:46;;;;;;;5.32;1.30;;;12.90;99.90;;;;;;6146128;23;20021;-95
2021/10/03 09:40:18;;;;;;;4.85;0.90;;;12.90;99.90;;;;;;6122317;23;20014;-91
2021/10/03 09:43:03;;;;;;;6.78;1.88;;;13.00;99.90;;;;;;6147426;23;20028;-92
2021/10/03 09:45:44;;;;;;;8.20;1.60;;;13.10;99.90;;;;;;6145520;23;20021;-91
2021/10/03 09:48:21;;;;;;;2.78;1.65;;;13.10;99.90;;;;;;6092522;23;20017;-93
2021/10/03 09:51:03;;;;;;;5.15;2.45;;;13.10;99.90;;;;;;6179183;23;20093;-90
2021/10/03 09:53:36;;;;;;;13.30;1.50;;;13.20;99.90;;;;;;6173071;23;20014;-93
2021/10/03 09:56:21;;;;;;;3.47;1.55;;;13.20;99.90;;;;;;6149627;23;20021;-90
2021/10/03 09:59:26;;;;;;;7.78;1.50;;;13.30;99.90;;;;;;6174119;23;20021;-89
2021/10/03 10:02:36;;;;;;;7.97;2.25;;;14.50;99.90;;;;;;6164234;23;20039;-95
2021/10/03 10:05:28;;;;;;;7.90;1.45;;;13.40;99.90;;;;;;6146380;23;20025;-91
2021/10/03 10:07:59;;;;;;;4.03;1.52;;;13.50;99.90;;;;;;6150842;23;20001;-90
2021/10/03 10:10:54;;;;;;;5.38;1.50;;;13.60;99.90;;;;;;6149998;23;20032;-91
2021/10/03 10:14:32;;;;;;;15.68;1.90;;;13.60;99.90;;;;;;6174488;23;20001;-95
2021/10/03 10:17:40;;;;;;;3.85;1.80;;;13.70;99.90;;;;;;6180550;23;20028;-93
2021/10/03 10:20:25;;;;;;;5.00;1.58;;;13.70;99.90;;;;;;6127215;23;20021;-91
2021/10/03 10:23:09;;;;;;;6.53;2.65;;;13.90;99.90;;;;;;6171514;23;20025;-94
2021/10/03 10:26:49;;;;;;;7.03;2.40;;;14.00;99.90;;;;;;6156556;23;20443;-90
2021/10/03 10:29:52;;;;;;;3.40;1.33;;;14.00;99.90;;;;;;6189127;23;20020;-89
2021/10/03 10:32:55;;;;;;;4.78;1.65;;;14.00;99.90;;;;;;6171011;23;20027;-92
2021/10/03 10:35:28;;;;;;;;;;;13.10;99.90;;;;;;6148553;23;20023;-90
2021/10/03 10:38:11;;;;;;;7.18;1.80;;;14.20;99.90;;;;;;6143665;23;20193;-90
2021/10/03 10:40:43;;;;;;;7.00;1.20;;;14.10;99.90;;;;;;6170891;23;20021;-90
2021/10/03 10:43:21;;;;;;;8.15;1.20;;;14.30;99.90;;;;;;6141020;23;20013;-92
2021/10/03 10:45:53;;;;;;;10.40;1.35;;;14.40;99.90;;;;;;6142745;23;20027;-88
2021/10/03 10:48:21;;;;;;;12.32;2.17;;;14.30;99.90;;;;;;6142908;23;20017;-87
2021/10/03 10:50:52;;;;;;;6.90;2.03;;;14.40;99.90;;;;;;6133600;23;20021;-86
2021/10/03 10:53:31;;;;;;;3.85;0.98;;;14.30;99.90;;;;;;6168971;23;20013;-88
2021/10/03 10:56:25;;;;;;;9.95;2.08;;;14.40;99.90;;;;;;6172065;23;20022;-89
2021/10/03 10:58:53;;;;;;;4.72;1.48;;;14.30;99.90;;;;;;6125523;23;20017;-88
2021/10/03 11:01:33;;;;;;;7.63;1.45;;;14.30;99.90;;;;;;6117851;23;20008;-88
2021/10/03 11:04:24;;;;;;;13.18;3.80;;;14.40;99.90;;;;;;6124794;23;20029;-91
2021/10/03 11:07:01;;;;;;;2.88;1.30;;;14.30;99.90;;;;;;6149070;23;20013;-90
2021/10/03 11:09:34;;;;;;;3.22;1.13;;;14.50;99.90;;;;;;6127194;23;20018;-90
2021/10/03 11:12:12;;;;;;;12.10;2.60;;;14.50;99.90;;;;;;6098878;23;20022;-91
2021/10/03 11:14:46;;;;;;;7.13;2.58;;;14.40;99.90;;;;;;6142741;23;20334;-89
2021/10/03 11:17:16;;;;;;;12.55;1.80;;;14.60;99.90;;;;;;6066655;23;20025;-88
2021/10/03 11:19:59;;;;;;;4.65;1.25;;;14.70;99.90;;;;;;6092422;23;20032;-88
2021/10/03 11:22:40;;;;;;;9.40;2.10;;;14.80;99.90;;;;;;6116097;23;20017;-89
2021/10/03 11:25:17;;;;;;;5.07;1.17;;;16.30;99.90;;;;;;6097100;23;20021;-93
2021/10/03 11:27:55;;;;;;;4.05;1.10;;;14.90;99.80;;;;;;6122102;23;20017;-90
2021/10/03 11:30:26;;;;;;;5.25;1.90;;;15.00;99.90;;;;;;6073843;23;20025;-89
2021/10/03 11:33:11;;;;;;;10.38;2.88;;;15.10;99.90;;;;;;6122965;23;20438;-86
2021/10/03 11:35:41;;;;;;;8.18;1.38;;;15.20;99.10;;;;;;6148574;23;20029;-90
2021/10/03 11:38:16;;;;;;;7.63;2.88;;;15.50;99.40;;;;;;6146919;23;20031;-90
2021/10/03 11:40:46;;;;;;;2.10;0.90;;;15.30;99.60;;;;;;6119974;23;20350;-87
2021/10/03 11:43:14;;;;;;;8.98;1.38;;;15.40;99.20;;;;;;6126144;23;20027;-89
2021/10/03 11:45:49;;;;;;;5.57;1.23;;;15.50;99.30;;;;;;6119350;23;20017;-91
2021/10/03 11:48:24;;;;;;;4.22;1.25;;;15.60;98.80;;;;;;6091860;23;20346;-91
2021/10/03 11:50:56;;;;;;;6.53;1.65;;;15.70;98.10;;;;;;6178995;23;20027;-88
2021/10/03 11:53:32;;;;;;;19.10;3.45;;;15.80;98.80;;;;;;6123616;23;20280;-93
2021/10/03 11:56:11;;;;;;;5.13;1.20;;;15.90;98.20;;;;;;6152000;23;20024;-91
2021/10/03 11:58:57;;;;;;;4.47;0.98;;;16.00;98.20;;;;;;6152981;23;20031;-91
2021/10/03 12:01:32;;;;;;;6.90;1.30;;;16.10;97.90;;;;;;6125391;23;20021;-92
2021/10/03 12:04:02;;;;;;;2.97;0.98;;;16.20;98.30;;;;;;6149049;23;20017;-91
2021/10/03 12:06:49;;;;;;;3.40;1.08;;;16.30;97.70;;;;;;6148546;23;20017;-89
2021/10/03 12:09:36;;;;;;;9.15;2.60;;;16.30;97.90;;;;;;6154469;23;20021;-91
2021/10/03 12:12:11;;;;;;;2.30;0.75;;;16.40;97.50;;;;;;6151772;23;20153;-90
2021/10/03 12:14:53;;;;;;;4.70;1.15;;;16.40;97.50;;;;;;6133015;23;20323;-91
2021/10/03 12:17:47;;;;;;;3.45;1.08;;;16.30;97.60;;;;;;6173670;23;20035;-88
2021/10/03 12:20:53;;;;;;;4.25;1.08;;;16.40;97.30;;;;;;6151944;23;20009;-89
2021/10/03 12:23:47;;;;;;;7.18;1.10;;;16.60;97.20;;;;;;6175795;23;20036;-90
2021/10/03 12:26:46;;;;;;;4.18;0.85;;;16.80;97.30;;;;;;6121317;23;20487;-90
2021/10/03 12:29:32;;;;;;;6.68;1.23;;;17.00;96.70;;;;;;6145492;23;20021;-91
2021/10/03 12:32:18;;;;;;;3.42;0.80;;;17.10;97.10;;;;;;6148296;23;20017;-90
2021/10/03 12:34:53;;;;;;;8.38;0.85;;;17.00;96.10;;;;;;6145646;23;20017;-89
2021/10/03 12:37:37;;;;;;;6.03;1.35;;;17.10;95.80;;;;;;6152775;23;20045;-89
2021/10/03 12:40:18;;;;;;;8.35;1.20;;;17.00;96.00;;;;;;6162799;23;20017;-89
2021/10/03 12:43:23;;;;;;;9.32;1.65;;;17.00;96.20;;;;;;6155577;23;20017;-93
2021/10/03 12:46:06;;;;;;;3.97;1.00;;;17.20;95.80;;;;;;6128370;23;20017;-91
2021/10/03 12:48:35;;;;;;;6.25;1.85;;;17.20;96.10;;;;;;6150665;23;20025;-91
2021/10/03 12:51:08;;;;;;;3.97;1.20;;;17.30;96.30;;;;;;6121273;23;20345;-87
2021/10/03 12:53:48;;;;;;;2.35;1.00;;;17.40;95.50;;;;;;6170919;23;20028;-88
2021/10/03 12:56:16;;;;;;;4.30;1.60;;;16.60;94.50;;;;;;6146160;23;20021;-88
2021/10/03 12:58:46;;;;;;;3.97;0.75;;;17.50;95.20;;;;;;6124653;23;20025;-91
2021/10/03 13:01:37;;;;;;;3.53;1.10;;;17.50;94.70;;;;;;6172065;23;20480;-92
2021/10/03 13:04:05;;;;;;;2.90;0.93;;;17.50;94.80;;;;;;6174054;23;20013;-87
2021/10/03 13:06:38;;;;;;;5.63;0.80;;;17.40;95.20;;;;;;6148510;23;20029;-89
2021/10/03 13:09:10;;;;;;;8.43;1.38;;;17.40;95.30;;;;;;6115155;23;20341;-88
2021/10/03 13:12:19;;;;;;;7.18;1.60;;;17.50;95.70;;;;;;6147043;23;20294;-85
2021/10/03 13:14:50;;;;;;;3.85;1.58;;;17.80;95.30;;;;;;6171460;23;20057;-86
2021/10/03 13:17:23;;;;;;;5.70;1.42;;;17.90;95.50;;;;;;6145377;23;20024;-87
2021/10/03 13:19:57;;;;;;;7.35;1.10;;;18.00;95.00;;;;;;6143739;23;20017;-88
2021/10/03 13:22:28;;;;;;;8.25;1.40;;;17.90;95.00;;;;;;6175296;23;20018;-87
2021/10/03 13:25:08;;;;;;;6.88;1.40;;;17.90;94.30;;;;;;6145217;23;20021;-86
2021/10/03 13:27:42;;;;;;;5.88;1.80;;;17.80;94.80;;;;;;6171381;23;20023;-86
2021/10/03 13:30:11;;;;;;;5.55;1.60;;;17.80;95.00;;;;;;6148996;23;20051;-85
2021/10/03 13:32:41;;;;;;;9.63;1.70;;;17.70;95.30;;;;;;6147559;23;20017;-85
2021/10/03 13:35:10;;;;;;;6.80;2.58;;;17.60;95.40;;;;;;6130428;23;20025;-87
2021/10/03 13:37:38;;;;;;;4.75;1.20;;;17.60;95.20;;;;;;6114963;23;20032;-88
2021/10/03 13:40:21;;;;;;;8.65;1.20;;;17.50;95.60;;;;;;6146247;23;20013;-90
2021/10/03 13:42:51;;;;;;;5.47;1.58;;;17.50;95.80;;;;;;6147183;23;20025;-89
2021/10/03 13:45:21;;;;;;;12.48;3.08;;;17.60;95.00;;;;;;6169016;23;20027;-87
2021/10/03 13:47:49;;;;;;;7.38;1.67;;;17.50;95.50;;;;;;6146246;23;20020;-86
2021/10/03 13:50:22;;;;;;;7.53;1.23;;;17.50;95.80;;;;;;6174081;23;20056;-87
2021/10/03 13:52:50;;;;;;;6.82;2.40;;;17.50;95.70;;;;;;6147192;23;20021;-88
2021/10/03 13:55:22;;;;;;;1.80;1.05;;;17.60;95.40;;;;;;6147875;23;20352;-89
2021/10/03 13:58:03;;;;;;;6.50;1.50;;;17.30;94.90;;;;;;6171203;23;20023;-85
2021/10/03 14:00:34;;;;;;;10.10;3.30;;;17.50;95.00;;;;;;6122793;23;20021;-88
2021/10/03 14:03:05;;;;;;;10.32;1.50;;;17.50;95.50;;;;;;6173263;23;20031;-91